Time;durP1;ratioP1;P1;durP2;ratioP2;P2;SDS_P1;SDS_P2;PMS_P1;PMS_P2;Temp;Humidity;BMP_temperature;BMP_pressure;BME280_temperature;BME280_humidity;BME280_pressure;Samples;Min_cycle;Max_cycle;Signal;HPM_P1;HPM_P2
2021/06/17 00:01:32;;;;;;;;;;;;;;;;;;5071259;28;19925;-72
2021/06/17 00:03:59;;;;;;;;;;;;;;;;;;5071078;28;20218;-71
2021/06/17 00:06:26;;;;;;;;;;;;;;;;;;5071259;28;20036;-72
2021/06/17 00:08:53;;;;;;;;;;;;;;;;;;5071074;28;19925;-71
2021/06/17 00:11:20;;;;;;;;;;;;;;;;;;5070649;28;20395;-71
2021/06/17 00:13:47;;;;;;;;;;;;;;;;;;5070663;28;20187;-71
2021/06/17 00:16:14;;;;;;;;;;;;;;;;;;5070843;28;19924;-71
2021/06/17 00:18:41;;;;;;;;;;;;;;;;;;5071030;28;20295;-71
2021/06/17 00:21:08;;;;;;;;;;;;;;;;;;5070753;28;19929;-71
2021/06/17 00:23:35;;;;;;;;;;;;;;;;;;5070888;28;19931;-71
2021/06/17 00:26:02;;;;;;;;;;;;;;;;;;5070558;28;19924;-71
2021/06/17 00:28:29;;;;;;;;;;;;;;;;;;5070699;28;19960;-72
2021/06/17 00:30:56;;;;;;;;;;;;;;;;;;5070103;28;19946;-71
2021/06/17 00:33:23;;;;;;;;;;;;;;;;;;5072382;28;19931;-72
2021/06/17 00:35:50;;;;;;;;;;;;;;;;;;5074335;28;19925;-71
2021/06/17 00:38:17;;;;;;;;;;;;;;;;;;5074068;28;19931;-71
2021/06/17 00:40:44;;;;;;;;;;;;;;;;;;5073588;28;20400;-71
2021/06/17 00:43:11;;;;;;;;;;;;;;;;;;5073991;28;19931;-71
2021/06/17 00:45:38;;;;;;;;;;;;;;;;;;5073716;28;20381;-70
2021/06/17 00:48:05;;;;;;;;;;;;;;;;;;5073597;28;19925;-71
2021/06/17 00:50:32;;;;;;;;;;;;;;;;;;5073439;28;20376;-72
2021/06/17 00:52:59;;;;;;;;;;;;;;;;;;5073799;28;20338;-73
2021/06/17 00:55:26;;;;;;;;;;;;;;;;;;5073779;28;19931;-74
2021/06/17 00:57:53;;;;;;;;;;;;;;;;;;5073617;28;19932;-72
2021/06/17 01:00:20;;;;;;;;;;;;;;;;;;5073434;28;19929;-71
2021/06/17 01:02:47;;;;;;;;;;;;;;;;;;5073878;28;19925;-73
2021/06/17 01:05:14;;;;;;;;;;;;;;;;;;5073606;28;19975;-73
2021/06/17 01:07:41;;;;;;;;;;;;;;;;;;5073941;28;19935;-73
2021/06/17 01:10:08;;;;;;;;;;;;;;;;;;5073421;28;19924;-71
2021/06/17 01:12:35;;;;;;;;;;;;;;;;;;5073541;28;19924;-72
2021/06/17 01:15:02;;;;;;;;;;;;;;;;;;5073782;28;19929;-72
2021/06/17 01:17:29;;;;;;;;;;;;;;;;;;5073722;28;19924;-72
2021/06/17 01:19:56;;;;;;;;;;;;;;;;;;5073070;28;19931;-72
2021/06/17 01:22:29;;;;;;;;;;;;;;;;;;5073209;28;19924;-73
2021/06/17 01:24:56;;;;;;;;;;;;;;;;;;5073184;28;19978;-73
2021/06/17 01:27:23;;;;;;;;;;;;;;;;;;5073153;28;19928;-73
2021/06/17 01:29:50;;;;;;;;;;;;;;;;;;5072754;28;19931;-73
2021/06/17 01:32:17;;;;;;;;;;;;;;;;;;5073104;28;20289;-72
2021/06/17 01:34:44;;;;;;;;;;;;;;;;;;5073022;28;19928;-73
2021/06/17 01:37:11;;;;;;;;;;;;;;;;;;5072975;28;19930;-72
2021/06/17 01:39:38;;;;;;;;;;;;;;;;;;5072443;28;20452;-73
2021/06/17 01:42:05;;;;;;;;;;;;;;;;;;5072821;28;19930;-72
2021/06/17 01:44:32;;;;;;;;;;;;;;;;;;5072255;28;20299;-73
2021/06/17 01:46:59;;;;;;;;;;;;;;;;;;5073067;28;19959;-72
2021/06/17 01:49:25;;;;;;;;;;;;;;;;;;5072263;28;19935;-73
2021/06/17 01:51:52;;;;;;;;;;;;;;;;;;5073016;28;19924;-73
2021/06/17 01:54:26;;;;;;;;;;;;;;;;;;5072296;28;20011;-72
2021/06/17 01:56:53;;;;;;;;;;;;;;;;;;5072581;28;19928;-72
2021/06/17 01:59:19;;;;;;;;;;;;;;;;;;5072458;28;20334;-73
2021/06/17 02:01:46;;;;;;;;;;;;;;;;;;5072503;28;19928;-73
2021/06/17 02:04:13;;;;;;;;;;;;;;;;;;5072474;28;19925;-72
2021/06/17 02:06:40;;;;;;;;;;;;;;;;;;5072025;28;20403;-72
2021/06/17 02:09:07;;;;;;;;;;;;;;;;;;5071941;28;19967;-71
2021/06/17 02:11:34;;;;;;;;;;;;;;;;;;5072235;28;19925;-71
2021/06/17 02:14:01;;;;;;;;;;;;;;;;;;5072291;28;20316;-72
2021/06/17 02:16:28;;;;;;;;;;;;;;;;;;5072278;28;20058;-74
2021/06/17 02:18:55;;;;;;;;;;;;;;;;;;5072317;28;19925;-74
2021/06/17 02:21:22;;;;;;;;;;;;;;;;;;5071849;28;19932;-74
2021/06/17 02:23:49;;;;;;;;;;;;;;;;;;5072043;28;20364;-73
2021/06/17 02:26:16;;;;;;;;;;;;;;;;;;5072006;28;19925;-73
2021/06/17 02:28:43;;;;;;;;;;;;;;;;;;5072106;28;19925;-73
2021/06/17 02:31:10;;;;;;;;;;;;;;;;;;5071727;28;19925;-72
2021/06/17 02:33:37;;;;;;;;;;;;;;;;;;5071663;28;19925;-71
2021/06/17 02:36:04;;;;;;;;;;;;;;;;;;5071881;28;20293;-73
2021/06/17 02:38:31;;;;;;;;;;;;;;;;;;5071883;28;19924;-72
2021/06/17 02:40:58;;;;;;;;;;;;;;;;;;5071709;28;19925;-73
2021/06/17 02:43:25;;;;;;;;;;;;;;;;;;5071800;28;20349;-72
2021/06/17 02:45:52;;;;;;;;;;;;;;;;;;5072505;28;19930;-72
2021/06/17 02:48:19;;;;;;;;;;;;;;;;;;5074800;28;19944;-73
2021/06/17 02:50:46;;;;;;;;;;;;;;;;;;5072552;28;19924;-73
2021/06/17 02:53:13;;;;;;;;;;;;;;;;;;5071775;28;19925;-73
2021/06/17 02:55:40;;;;;;;;;;;;;;;;;;5070642;28;19931;-73
2021/06/17 02:58:07;;;;;;;;;;;;;;;;;;5071742;28;19925;-74
2021/06/17 03:00:34;;;;;;;;;;;;;;;;;;5071115;28;19924;-72
2021/06/17 03:03:01;;;;;;;;;;;;;;;;;;5071674;28;20129;-74
2021/06/17 03:05:29;;;;;;;;;;;;;;;;;;5071732;28;19932;-73
2021/06/17 03:07:55;;;;;;;;;;;;;;;;;;5071747;28;20373;-72
2021/06/17 03:10:23;;;;;;;;;;;;;;;;;;5072160;28;19991;-74
2021/06/17 03:12:49;;;;;;;;;;;;;;;;;;5075177;28;19924;-73
2021/06/17 03:15:16;;;;;;;;;;;;;;;;;;5074134;28;19925;-73
2021/06/17 03:17:43;;;;;;;;;;;;;;;;;;5073666;28;19931;-73
2021/06/17 03:20:10;;;;;;;;;;;;;;;;;;5094840;22;20307;-63
2021/06/17 03:22:37;;;;;;;;;;;;;;;;;;5092083;28;19924;-63
2021/06/17 03:25:04;;;;;;;;;;;;;;;;;;5080811;28;19932;-63
2021/06/17 03:27:31;;;;;;;;;;;;;;;;;;5071749;28;20406;-63
2021/06/17 03:29:58;;;;;;;;;;;;;;;;;;5070911;28;19925;-63
2021/06/17 03:32:26;;;;;;;;;;;;;;;;;;5071716;28;19925;-63
2021/06/17 03:34:53;;;;;;;;;;;;;;;;;;5071308;28;19932;-63
2021/06/17 03:37:21;;;;;;;;;;;;;;;;;;5071623;28;19932;-63
2021/06/17 03:39:47;;;;;;;;;;;;;;;;;;5071137;28;20019;-63
2021/06/17 03:42:14;;;;;;;;;;;;;;;;;;5071605;28;19924;-63
2021/06/17 03:44:41;;;;;;;;;;;;;;;;;;5071224;28;19935;-63
2021/06/17 03:47:08;;;;;;;;;;;;;;;;;;5071447;28;19931;-63
2021/06/17 03:49:35;;;;;;;;;;;;;;;;;;5071469;28;19931;-63
2021/06/17 03:52:02;;;;;;;;;;;;;;;;;;5071244;28;19931;-63
2021/06/17 03:54:29;;;;;;;;;;;;;;;;;;5071326;28;19932;-63
2021/06/17 03:56:56;;;;;;;;;;;;;;;;;;5071168;28;19931;-63
2021/06/17 03:59:23;;;;;;;;;;;;;;;;;;5070992;28;19947;-63
2021/06/17 04:01:50;;;;;;;;;;;;;;;;;;5071316;28;19931;-63
2021/06/17 04:04:17;;;;;;;;;;;;;;;;;;5071644;28;19924;-64
2021/06/17 04:06:44;;;;;;;;;;;;;;;;;;5071926;28;19924;-63
2021/06/17 04:09:11;;;;;;;;;;;;;;;;;;5074543;28;19928;-63
2021/06/17 04:11:38;;;;;;;;;;;;;;;;;;5074750;28;20410;-63
2021/06/17 04:14:08;;;;;;;;;;;;;;;;;;5074599;28;19947;-63
2021/06/17 04:16:35;;;;;;;;;;;;;;;;;;5075053;28;19931;-63
2021/06/17 04:19:01;;;;;;;;;;;;;;;;;;5074540;28;19932;-63
2021/06/17 04:21:28;;;;;;;;;;;;;;;;;;5074465;28;19930;-63
2021/06/17 04:23:55;;;;;;;;;;;;;;;;;;5074672;28;19932;-63
2021/06/17 04:26:22;;;;;;;;;;;;;;;;;;5074133;28;19932;-63
2021/06/17 04:28:49;;;;;;;;;;;;;;;;;;5074238;28;20016;-63
2021/06/17 04:31:16;;;;;;;;;;;;;;;;;;5074227;28;19924;-63
2021/06/17 04:33:43;;;;;;;;;;;;;;;;;;5074349;28;19931;-63
2021/06/17 04:36:10;;;;;;;;;;;;;;;;;;5074007;28;19950;-63
2021/06/17 04:38:38;;;;;;;;;;;;;;;;;;5074271;28;20324;-63
2021/06/17 04:41:05;;;;;;;;;;;;;;;;;;5073656;28;19928;-63
2021/06/17 04:43:32;;;;;;;;;;;;;;;;;;5074137;28;19924;-63
2021/06/17 04:45:59;;;;;;;;;;;;;;;;;;5074252;28;20410;-62
2021/06/17 04:48:27;;;;;;;;;;;;;;;;;;5073991;28;20011;-62
2021/06/17 04:50:54;;;;;;;;;;;;;;;;;;5074005;28;19924;-62
2021/06/17 04:53:21;;;;;;;;;;;;;;;;;;5073852;28;20297;-62
2021/06/17 04:55:48;;;;;;;;;;;;;;;;;;5073877;28;19932;-62
2021/06/17 04:58:15;;;;;;;;;;;;;;;;;;5074081;28;19924;-62
2021/06/17 05:00:42;;;;;;;;;;;;;;;;;;5073611;28;20406;-62
2021/06/17 05:03:09;;;;;;;;;;;;;;;;;;5074193;28;19925;-62
2021/06/17 05:05:39;;;;;;;;;;;;;;;;;;5074185;28;19924;-62
2021/06/17 05:10:50;;;;;;;;;;;;;;;;;;5073296;28;20012;-62
2021/06/17 05:13:17;;;;;;;;;;;;;;;;;;5074003;28;19924;-62
2021/06/17 05:15:44;;;;;;;;;;;;;;;;;;5073636;28;20422;-62
2021/06/17 05:18:11;;;;;;;;;;;;;;;;;;5073031;28;19928;-62
2021/06/17 05:20:38;;;;;;;;;;;;;;;;;;5073446;28;20195;-62
2021/06/17 05:23:06;;;;;;;;;;;;;;;;;;5073960;28;20311;-62
2021/06/17 05:25:32;;;;;;;;;;;;;;;;;;5073578;28;19925;-62
2021/06/17 05:27:59;;;;;;;;;;;;;;;;;;5073660;28;19925;-62
2021/06/17 05:30:26;;;;;;;;;;;;;;;;;;5072999;28;19951;-62
2021/06/17 05:32:53;;;;;;;;;;;;;;;;;;5073284;28;19925;-63
2021/06/17 05:35:20;;;;;;;;;;;;;;;;;;5073229;28;19928;-63
2021/06/17 05:37:48;;;;;;;;;;;;;;;;;;5073252;28;19925;-63
2021/06/17 05:40:15;;;;;;;;;;;;;;;;;;5073035;28;19994;-63
2021/06/17 05:42:42;;;;;;;;;;;;;;;;;;5073266;28;19932;-63
2021/06/17 05:45:09;;;;;;;;;;;;;;;;;;5072974;28;19925;-63
2021/06/17 05:47:36;;;;;;;;;;;;;;;;;;5072945;28;19925;-62
2021/06/17 05:50:03;;;;;;;;;;;;;;;;;;5072565;28;19951;-63
2021/06/17 05:52:30;;;;;;;;;;;;;;;;;;5073026;28;19932;-63
2021/06/17 05:54:57;;;;;;;;;;;;;;;;;;5072487;28;20391;-62
2021/06/17 05:57:24;;;;;;;;;;;;;;;;;;5072974;28;20519;-63
2021/06/17 05:59:51;;;;;;;;;;;;;;;;;;5072916;28;20265;-63
2021/06/17 06:02:23;;;;;;;;;;;;;;;;;;5072654;28;20384;-62
2021/06/17 06:04:50;;;;;;;;;;;;;;;;;;5073098;28;19934;-63
2021/06/17 06:07:17;;;;;;;;;;;;;;;;;;5072504;28;19924;-62
2021/06/17 06:09:44;;;;;;;;;;;;;;;;;;5072587;28;19928;-63
2021/06/17 06:12:11;;;;;;;;;;;;;;;;;;5072516;28;19928;-63
2021/06/17 06:14:38;;;;;;;;;;;;;;;;;;5072544;28;20003;-63
2021/06/17 06:17:05;;;;;;;;;;;;;;;;;;5072413;28;19928;-63
2021/06/17 06:19:33;;;;;;;;;;;;;;;;;;5071811;28;19925;-62
2021/06/17 06:22:00;;;;;;;;;;;;;;;;;;5072137;28;19925;-62
2021/06/17 06:24:27;;;;;;;;;;;;;;;;;;5072562;28;19931;-63
2021/06/17 06:26:59;;;;;;;;;;;;;;;;;;5072622;28;19943;-63
2021/06/17 06:29:26;;;;;;;;;;;;;;;;;;5072032;28;19932;-63
2021/06/17 06:31:53;;;;;;;;;;;;;;;;;;5072224;28;19924;-63
2021/06/17 06:34:20;;;;;;;;;;;;;;;;;;5072013;28;19924;-62
2021/06/17 06:36:47;;;;;;;;;;;;;;;;;;5072526;28;20035;-62
2021/06/17 06:39:14;;;;;;;;;;;;;;;;;;5071706;28;19928;-63
2021/06/17 06:41:41;;;;;;;;;;;;;;;;;;5072365;28;19925;-63
2021/06/17 06:44:08;;;;;;;;;;;;;;;;;;5072425;28;19950;-62
2021/06/17 06:46:35;;;;;;;;;;;;;;;;;;5072539;28;19925;-63
2021/06/17 06:49:02;;;;;;;;;;;;;;;;;;5072339;28;19929;-62
2021/06/17 06:51:30;;;;;;;;;;;;;;;;;;5072002;28;20304;-62
2021/06/17 06:53:57;;;;;;;;;;;;;;;;;;5072254;28;19931;-62
2021/06/17 06:56:23;;;;;;;;;;;;;;;;;;5071733;28;19925;-63
2021/06/17 06:58:50;;;;;;;;;;;;;;;;;;5072469;28;19940;-63
2021/06/17 07:01:21;;;;;;;;;;;;;;;;;;5071292;28;20590;-63
2021/06/17 07:03:48;;;;;;;;;;;;;;;;;;5072354;28;19924;-63
2021/06/17 07:06:15;;;;;;;;;;;;;;;;;;5071910;28;19924;-62
2021/06/17 07:08:42;;;;;;;;;;;;;;;;;;5071730;28;19929;-63
2021/06/17 07:11:09;;;;;;;;;;;;;;;;;;5071437;28;20410;-63
2021/06/17 07:13:36;;;;;;;;;;;;;;;;;;5071865;28;20307;-63
2021/06/17 07:16:04;;;;;;;;;;;;;;;;;;5071852;28;19931;-63
2021/06/17 07:18:31;;;;;;;;;;;;;;;;;;5071814;28;20307;-63
2021/06/17 07:20:58;;;;;;;;;;;;;;;;;;5071159;28;19931;-63
2021/06/17 07:23:27;;;;;;;;;;;;;;;;;;5071496;28;19951;-63
2021/06/17 07:25:54;;;;;;;;;;;;;;;;;;5071887;28;19925;-63
2021/06/17 07:28:21;;;;;;;;;;;;;;;;;;5071961;28;19924;-63
2021/06/17 07:30:48;;;;;;;;;;;;;;;;;;5071251;28;19930;-64
2021/06/17 07:33:15;;;;;;;;;;;;;;;;;;5071811;28;19931;-63
2021/06/17 07:35:42;;;;;;;;;;;;;;;;;;5071655;28;19929;-63
2021/06/17 07:38:09;;;;;;;;;;;;;;;;;;5071217;28;19930;-62
2021/06/17 07:40:40;;;;;;;;;;;;;;;;;;5071057;28;19925;-62
2021/06/17 07:43:07;;;;;;;;;;;;;;;;;;5075125;28;19940;-62
2021/06/17 07:45:34;;;;;;;;;;;;;;;;;;5075511;28;20446;-64
2021/06/17 07:48:01;;;;;;;;;;;;;;;;;;5075475;28;19924;-62
2021/06/17 07:50:32;;;;;;;;;;;;;;;;;;5076022;28;19932;-63
2021/06/17 07:52:59;;;;;;;;;;;;;;;;;;5078826;28;19924;-63
2021/06/17 07:55:26;;;;;;;;;;;;;;;;;;5078941;28;19928;-63
2021/06/17 07:57:53;;;;;;;;;;;;;;;;;;5077760;28;20407;-62
2021/06/17 08:00:20;;;;;;;;;;;;;;;;;;5075297;28;19970;-63
2021/06/17 08:02:47;;;;;;;;;;;;;;;;;;5075088;28;19924;-64
2021/06/17 08:05:14;;;;;;;;;;;;;;;;;;5074920;28;20400;-63
2021/06/17 08:07:41;;;;;;;;;;;;;;;;;;5075220;28;19947;-64
2021/06/17 08:10:08;;;;;;;;;;;;;;;;;;5074762;28;20007;-63
2021/06/17 08:12:35;;;;;;;;;;;;;;;;;;5075175;28;19925;-63
2021/06/17 08:15:02;;;;;;;;;;;;;;;;;;5074825;28;19928;-62
2021/06/17 08:17:29;;;;;;;;;;;;;;;;;;5075102;28;19924;-65
2021/06/17 08:19:56;;;;;;;;;;;;;;;;;;5074759;28;19924;-64
2021/06/17 08:22:25;;;;;;;;;;;;;;;;;;5074857;28;19924;-64
2021/06/17 08:24:52;;;;;;;;;;;;;;;;;;5074623;28;19979;-63
2021/06/17 08:27:19;;;;;;;;;;;;;;;;;;5074778;28;19940;-63
2021/06/17 08:29:46;;;;;;;;;;;;;;;;;;5074511;28;20336;-63
2021/06/17 08:32:13;;;;;;;;;;;;;;;;;;5074270;28;20011;-63
2021/06/17 08:34:40;;;;;;;;;;;;;;;;;;5074650;28;20015;-63
2021/06/17 08:37:07;;;;;;;;;;;;;;;;;;5074654;28;19930;-63
2021/06/17 08:39:35;;;;;;;;;;;;;;;;;;5074246;28;19932;-64
2021/06/17 08:42:02;;;;;;;;;;;;;;;;;;5074099;28;19991;-64
2021/06/17 08:44:29;;;;;;;;;;;;;;;;;;5074346;28;19924;-63
2021/06/17 08:46:56;;;;;;;;;;;;;;;;;;5074167;28;19974;-64
2021/06/17 08:49:26;;;;;;;;;;;;;;;;;;5073952;28;20361;-63
2021/06/17 08:51:54;;;;;;;;;;;;;;;;;;5074243;28;19933;-63
2021/06/17 08:54:23;;;;;;;;;;;;;;;;;;5072933;28;19926;-63
2021/06/17 08:56:50;;;;;;;;;;;;;;;;;;5074122;28;19978;-63
2021/06/17 08:59:18;;;;;;;;;;;;;;;;;;5073543;28;20312;-63
2021/06/17 09:01:45;;;;;;;;;;;;;;;;;;5074129;28;20377;-63
2021/06/17 09:04:12;;;;;;;;;;;;;;;;;;5073832;28;19925;-63
2021/06/17 09:06:38;;;;;;;;;;;;;;;;;;5073891;28;19924;-63
2021/06/17 09:09:05;;;;;;;;;;;;;;;;;;5074118;28;20380;-63
2021/06/17 09:11:32;;;;;;;;;;;;;;;;;;5073982;28;19936;-63
2021/06/17 09:13:59;;;;;;;;;;;;;;;;;;5074310;28;20328;-63
2021/06/17 09:16:28;;;;;;;;;;;;;;;;;;5073512;28;19924;-62
2021/06/17 09:18:55;;;;;;;;;;;;;;;;;;5074088;28;20351;-63
2021/06/17 09:21:22;;;;;;;;;;;;;;;;;;5074255;28;20011;-63
2021/06/17 09:23:49;;;;;;;;;;;;;;;;;;5073867;28;19933;-65
2021/06/17 09:26:18;;;;;;;;;;;;;;;;;;5073210;28;19935;-63
2021/06/17 09:28:45;;;;;;;;;;;;;;;;;;5073810;28;19976;-63
2021/06/17 09:31:12;;;;;;;;;;;;;;;;;;5073045;28;19924;-63
2021/06/17 09:33:39;;;;;;;;;;;;;;;;;;5073627;28;19931;-64
2021/06/17 09:36:06;;;;;;;;;;;;;;;;;;5073244;28;19924;-63
2021/06/17 09:38:33;;;;;;;;;;;;;;;;;;5073371;28;19929;-63
2021/06/17 09:41:00;;;;;;;;;;;;;;;;;;5072860;28;20090;-63
2021/06/17 09:43:28;;;;;;;;;;;;;;;;;;5073106;28;19932;-63
2021/06/17 09:45:55;;;;;;;;;;;;;;;;;;5073089;28;19931;-63
2021/06/17 09:48:21;;;;;;;;;;;;;;;;;;5073378;28;20436;-62
2021/06/17 09:50:48;;;;;;;;;;;;;;;;;;5072617;28;19925;-63
2021/06/17 09:53:15;;;;;;;;;;;;;;;;;;5073288;28;20349;-63
2021/06/17 09:55:42;;;;;;;;;;;;;;;;;;5072766;28;19983;-63
2021/06/17 09:58:09;;;;;;;;;;;;;;;;;;5073362;28;19930;-63
2021/06/17 10:00:36;;;;;;;;;;;;;;;;;;5072785;28;19935;-63
2021/06/17 10:03:03;;;;;;;;;;;;;;;;;;5072948;28;19947;-63
2021/06/17 10:05:31;;;;;;;;;;;;;;;;;;5072364;28;19924;-63
2021/06/17 10:07:58;;;;;;;;;;;;;;;;;;5072429;28;19953;-63
2021/06/17 10:10:29;;;;;;;;;;;;;;;;;;5072217;28;19924;-63
2021/06/17 10:12:56;;;;;;;;;;;;;;;;;;5072458;28;19924;-63
2021/06/17 10:15:23;;;;;;;;;;;;;;;;;;5072162;28;20140;-63
2021/06/17 10:17:50;;;;;;;;;;;;;;;;;;5072431;28;19931;-63
2021/06/17 10:20:17;;;;;;;;;;;;;;;;;;5072134;28;19931;-63
2021/06/17 10:22:44;;;;;;;;;;;;;;;;;;5072118;28;19924;-64
2021/06/17 10:25:11;;;;;;;;;;;;;;;;;;5072580;28;19924;-63
2021/06/17 10:27:38;;;;;;;;;;;;;;;;;;5072404;28;19931;-63
2021/06/17 10:30:05;;;;;;;;;;;;;;;;;;5072153;28;19924;-64
2021/06/17 10:32:32;;;;;;;;;;;;;;;;;;5072188;28;19959;-63
2021/06/17 10:34:59;;;;;;;;;;;;;;;;;;5072034;28;20015;-63
2021/06/17 10:37:27;;;;;;;;;;;;;;;;;;5072269;28;19925;-62
2021/06/17 10:39:54;;;;;;;;;;;;;;;;;;5072029;28;19986;-62
2021/06/17 10:42:21;;;;;;;;;;;;;;;;;;5072358;28;20011;-64
2021/06/17 10:44:48;;;;;;;;;;;;;;;;;;5072108;28;19932;-63
2021/06/17 10:47:15;;;;;;;;;;;;;;;;;;5071922;28;19931;-64
2021/06/17 10:49:42;;;;;;;;;;;;;;;;;;5071493;28;19947;-63
2021/06/17 10:52:09;;;;;;;;;;;;;;;;;;5072136;28;19925;-63
2021/06/17 10:54:36;;;;;;;;;;;;;;;;;;5072131;28;19924;-63
2021/06/17 10:57:03;;;;;;;;;;;;;;;;;;5071822;28;19940;-63
2021/06/17 10:59:30;;;;;;;;;;;;;;;;;;5071569;28;19924;-63
2021/06/17 11:01:56;;;;;;;;;;;;;;;;;;5072174;28;19925;-63
2021/06/17 11:04:23;;;;;;;;;;;;;;;;;;5071786;28;20392;-64
2021/06/17 11:06:50;;;;;;;;;;;;;;;;;;5071582;28;19925;-63
2021/06/17 11:09:17;;;;;;;;;;;;;;;;;;5071828;28;19927;-63
2021/06/17 11:11:44;;;;;;;;;;;;;;;;;;5071827;28;20311;-62
2021/06/17 11:14:11;;;;;;;;;;;;;;;;;;5071879;28;20023;-63
2021/06/17 11:16:38;;;;;;;;;;;;;;;;;;5070952;28;20318;-64
2021/06/17 11:19:08;;;;;;;;;;;;;;;;;;5071482;28;19940;-63
2021/06/17 11:21:35;;;;;;;;;;;;;;;;;;5071751;28;20372;-66
2021/06/17 11:24:02;;;;;;;;;;;;;;;;;;5071485;28;19928;-63
2021/06/17 11:26:29;;;;;;;;;;;;;;;;;;5071705;28;19931;-63
2021/06/17 11:28:56;;;;;;;;;;;;;;;;;;5071497;28;19925;-63
2021/06/17 11:31:23;;;;;;;;;;;;;;;;;;5071238;28;19947;-63
2021/06/17 11:33:50;;;;;;;;;;;;;;;;;;5071886;28;19925;-63
2021/06/17 11:36:17;;;;;;;;;;;;;;;;;;5071358;28;20019;-64
2021/06/17 11:38:44;;;;;;;;;;;;;;;;;;5071864;28;19924;-63
2021/06/17 11:41:11;;;;;;;;;;;;;;;;;;5071073;28;19924;-63
2021/06/17 11:43:40;;;;;;;;;;;;;;;;;;5071657;28;19924;-64
2021/06/17 11:46:07;;;;;;;;;;;;;;;;;;5071247;28;20281;-63
2021/06/17 11:48:34;;;;;;;;;;;;;;;;;;5071566;28;19924;-63
2021/06/17 11:51:02;;;;;;;;;;;;;;;;;;5071247;28;19924;-64
2021/06/17 11:53:29;;;;;;;;;;;;;;;;;;5071967;28;20290;-63
2021/06/17 11:55:56;;;;;;;;;;;;;;;;;;5072008;28;19932;-63
2021/06/17 11:58:23;;;;;;;;;;;;;;;;;;5071277;28;20295;-63
2021/06/17 12:00:51;;;;;;;;;;;;;;;;;;5071185;28;20027;-63
2021/06/17 12:03:20;;;;;;;;;;;;;;;;;;5071434;28;20007;-63
2021/06/17 12:05:47;;;;;;;;;;;;;;;;;;5071266;28;19932;-63
2021/06/17 12:08:13;;;;;;;;;;;;;;;;;;5071012;28;19924;-64
2021/06/17 12:10:41;;;;;;;;;;;;;;;;;;5070804;28;19924;-64
2021/06/17 12:13:08;;;;;;;;;;;;;;;;;;5071041;28;19978;-64
2021/06/17 12:15:35;;;;;;;;;;;;;;;;;;5071211;28;20024;-64
2021/06/17 12:18:02;;;;;;;;;;;;;;;;;;5071296;28;19936;-63
2021/06/17 12:20:31;;;;;;;;;;;;;;;;;;5070287;28;19925;-65
2021/06/17 12:22:58;;;;;;;;;;;;;;;;;;5071091;28;20277;-64
2021/06/17 12:25:25;;;;;;;;;;;;;;;;;;5070386;28;19936;-63
2021/06/17 12:27:52;;;;;;;;;;;;;;;;;;5072324;28;19924;-64
2021/06/17 12:30:19;;;;;;;;;;;;;;;;;;5074129;28;20028;-64
2021/06/17 12:32:46;;;;;;;;;;;;;;;;;;5074652;28;20387;-63
2021/06/17 12:35:13;;;;;;;;;;;;;;;;;;5074713;28;19925;-64
2021/06/17 12:37:40;;;;;;;;;;;;;;;;;;5074071;28;19971;-64
2021/06/17 12:40:07;;;;;;;;;;;;;;;;;;5073897;28;20388;-64
2021/06/17 12:42:34;;;;;;;;;;;;;;;;;;5074445;28;19972;-64
2021/06/17 12:45:02;;;;;;;;;;;;;;;;;;5074733;28;19924;-64
2021/06/17 12:47:31;;;;;;;;;;;;;;;;;;5074629;28;19956;-64
2021/06/17 12:52:44;;;;;;;;;;;;;;;;;;5056230;28;19921;-63
2021/06/17 12:55:11;;;;;;;;;;;;;;;;;;5074176;28;19925;-63
2021/06/17 12:57:38;;;;;;;;;;;;;;;;;;5074156;28;19924;-63
2021/06/17 13:00:05;;;;;;;;;;;;;;;;;;5074061;28;19924;-63
2021/06/17 13:02:32;;;;;;;;;;;;;;;;;;5074085;28;19971;-63
2021/06/17 13:04:59;;;;;;;;;;;;;;;;;;5074000;28;19931;-63
2021/06/17 13:07:26;;;;;;;;;;;;;;;;;;5074176;28;19931;-64
2021/06/17 13:09:53;;;;;;;;;;;;;;;;;;5073953;28;19939;-64
2021/06/17 13:12:21;;;;;;;;;;;;;;;;;;5076232;28;19925;-64
2021/06/17 13:14:48;;;;;;;;;;;;;;;;;;5075569;28;19946;-64
2021/06/17 13:17:15;;;;;;;;;;;;;;;;;;5074916;28;19933;-64
2021/06/17 13:19:42;;;;;;;;;;;;;;;;;;5074410;28;19931;-63
2021/06/17 13:22:10;;;;;;;;;;;;;;;;;;5074758;28;19925;-64
2021/06/17 13:24:37;;;;;;;;;;;;;;;;;;5073720;28;19925;-64
2021/06/17 13:27:04;;;;;;;;;;;;;;;;;;5073770;28;19967;-64
2021/06/17 13:29:31;;;;;;;;;;;;;;;;;;5073445;28;20019;-64
2021/06/17 13:31:58;;;;;;;;;;;;;;;;;;5073120;28;19931;-64
2021/06/17 13:34:25;;;;;;;;;;;;;;;;;;5073664;28;20384;-62
2021/06/17 13:36:52;;;;;;;;;;;;;;;;;;5073344;28;19978;-64
2021/06/17 13:39:19;;;;;;;;;;;;;;;;;;5072610;28;19924;-64
2021/06/17 13:41:46;;;;;;;;;;;;;;;;;;5073210;28;19925;-64
2021/06/17 13:44:14;;;;;;;;;;;;;;;;;;5073417;28;20388;-64
2021/06/17 13:46:41;;;;;;;;;;;;;;;;;;5073129;28;19928;-63
2021/06/17 13:49:08;;;;;;;;;;;;;;;;;;5072625;28;19924;-63
2021/06/17 13:51:35;;;;;;;;;;;;;;;;;;5073232;28;19924;-63
2021/06/17 13:54:02;;;;;;;;;;;;;;;;;;5073153;28;19994;-63
2021/06/17 13:56:29;;;;;;;;;;;;;;;;;;5073025;28;20018;-63
2021/06/17 13:58:57;;;;;;;;;;;;;;;;;;5073228;28;19925;-63
2021/06/17 14:01:26;;;;;;;;;;;;;;;;;;5072922;28;19931;-63
2021/06/17 14:03:53;;;;;;;;;;;;;;;;;;5073036;28;19929;-64
2021/06/17 14:06:20;;;;;;;;;;;;;;;;;;5072687;28;19924;-63
2021/06/17 14:08:47;;;;;;;;;;;;;;;;;;5072794;28;20421;-63
2021/06/17 14:11:14;;;;;;;;;;;;;;;;;;5072336;28;19931;-63
2021/06/17 14:13:43;;;;;;;;;;;;;;;;;;5072774;28;19947;-63
2021/06/17 14:16:11;;;;;;;;;;;;;;;;;;5072505;28;19925;-63
2021/06/17 14:18:38;;;;;;;;;;;;;;;;;;5072914;28;20015;-63
2021/06/17 14:21:07;;;;;;;;;;;;;;;;;;5072283;28;20110;-65
2021/06/17 14:23:34;;;;;;;;;;;;;;;;;;5072457;28;20019;-63
2021/06/17 14:26:01;;;;;;;;;;;;;;;;;;5072373;28;19928;-63
2021/06/17 14:28:28;;;;;;;;;;;;;;;;;;5072292;28;19932;-64
2021/06/17 14:30:55;;;;;;;;;;;;;;;;;;5072218;28;19925;-63
2021/06/17 14:33:21;;;;;;;;;;;;;;;;;;5072348;28;19931;-63
2021/06/17 14:35:48;;;;;;;;;;;;;;;;;;5072351;28;20384;-63
2021/06/17 14:38:15;;;;;;;;;;;;;;;;;;5072265;28;19931;-64
2021/06/17 14:40:42;;;;;;;;;;;;;;;;;;5072050;28;19924;-63
2021/06/17 14:43:11;;;;;;;;;;;;;;;;;;5072164;28;20019;-64
2021/06/17 14:45:38;;;;;;;;;;;;;;;;;;5072108;28;19978;-63
2021/06/17 14:48:05;;;;;;;;;;;;;;;;;;5072908;28;20023;-64
2021/06/17 14:50:32;;;;;;;;;;;;;;;;;;5071383;28;20377;-63
2021/06/17 14:52:59;;;;;;;;;;;;;;;;;;5071693;28;20011;-65
2021/06/17 14:55:26;;;;;;;;;;;;;;;;;;5072080;28;19925;-63
2021/06/17 14:57:55;;;;;;;;;;;;;;;;;;5071898;28;19924;-64
2021/06/17 15:00:24;;;;;;;;;;;;;;;;;;5071887;28;19995;-64
2021/06/17 15:02:51;;;;;;;;;;;;;;;;;;5071727;28;19924;-63
2021/06/17 15:05:18;;;;;;;;;;;;;;;;;;5071961;28;19931;-63
2021/06/17 15:07:45;;;;;;;;;;;;;;;;;;5071440;28;19924;-63
2021/06/17 15:10:12;;;;;;;;;;;;;;;;;;5071664;28;19931;-63
2021/06/17 15:12:39;;;;;;;;;;;;;;;;;;5071779;28;19924;-63
2021/06/17 15:15:06;;;;;;;;;;;;;;;;;;5071998;28;19931;-63
2021/06/17 15:17:33;;;;;;;;;;;;;;;;;;5071707;28;20292;-63
2021/06/17 15:20:00;;;;;;;;;;;;;;;;;;5071493;28;20019;-63
2021/06/17 15:22:27;;;;;;;;;;;;;;;;;;5071607;28;20028;-63
2021/06/17 15:24:54;;;;;;;;;;;;;;;;;;5071203;28;19933;-63
2021/06/17 15:27:22;;;;;;;;;;;;;;;;;;5071663;28;19931;-63
2021/06/17 15:29:49;;;;;;;;;;;;;;;;;;5071436;28;19960;-63
2021/06/17 15:32:16;;;;;;;;;;;;;;;;;;5071583;28;20328;-63
2021/06/17 15:34:43;;;;;;;;;;;;;;;;;;5071543;28;19974;-63
2021/06/17 15:37:11;;;;;;;;;;;;;;;;;;5070980;28;19979;-64
2021/06/17 15:39:38;;;;;;;;;;;;;;;;;;5071631;28;19924;-64
2021/06/17 15:42:05;;;;;;;;;;;;;;;;;;5071478;28;19928;-63
2021/06/17 15:44:31;;;;;;;;;;;;;;;;;;5071626;28;20312;-63
2021/06/17 15:46:59;;;;;;;;;;;;;;;;;;5071057;28;19924;-63
2021/06/17 15:49:26;;;;;;;;;;;;;;;;;;5071265;28;19931;-63
2021/06/17 15:51:53;;;;;;;;;;;;;;;;;;5071274;28;19924;-63
2021/06/17 15:54:22;;;;;;;;;;;;;;;;;;5071608;28;19925;-63
2021/06/17 15:56:49;;;;;;;;;;;;;;;;;;5071178;28;19947;-62
2021/06/17 15:59:16;;;;;;;;;;;;;;;;;;5071324;28;20051;-63
2021/06/17 16:01:43;;;;;;;;;;;;;;;;;;5071474;28;19924;-63
2021/06/17 16:04:13;;;;;;;;;;;;;;;;;;5074667;28;19934;-63
2021/06/17 16:06:40;;;;;;;;;;;;;;;;;;5074959;28;20110;-63
2021/06/17 16:09:07;;;;;;;;;;;;;;;;;;5074532;28;20011;-64
2021/06/17 16:11:34;;;;;;;;;;;;;;;;;;5074842;28;20418;-63
2021/06/17 16:14:01;;;;;;;;;;;;;;;;;;5075072;28;19925;-63
2021/06/17 16:16:28;;;;;;;;;;;;;;;;;;5074842;28;19924;-63
2021/06/17 16:18:55;;;;;;;;;;;;;;;;;;5074632;28;19978;-63
2021/06/17 16:21:22;;;;;;;;;;;;;;;;;;5074326;28;19928;-63
2021/06/17 16:23:50;;;;;;;;;;;;;;;;;;5074838;28;19924;-63
2021/06/17 16:26:17;;;;;;;;;;;;;;;;;;5074726;28;19972;-63
2021/06/17 16:28:44;;;;;;;;;;;;;;;;;;5074761;28;19931;-63
2021/06/17 16:31:11;;;;;;;;;;;;;;;;;;5073945;28;19924;-63
2021/06/17 16:33:38;;;;;;;;;;;;;;;;;;5074451;28;20550;-63
2021/06/17 16:36:05;;;;;;;;;;;;;;;;;;5074426;28;19929;-62
2021/06/17 16:38:32;;;;;;;;;;;;;;;;;;5074835;28;20043;-64
2021/06/17 16:40:59;;;;;;;;;;;;;;;;;;5074267;28;19974;-62
2021/06/17 16:43:26;;;;;;;;;;;;;;;;;;5074325;28;19936;-63
2021/06/17 16:45:53;;;;;;;;;;;;;;;;;;5074319;28;19932;-63
2021/06/17 16:48:21;;;;;;;;;;;;;;;;;;5074243;28;20041;-62
2021/06/17 16:50:48;;;;;;;;;;;;;;;;;;5074141;28;19977;-63